Time;durP1;ratioP1;P1;durP2;ratioP2;P2;SDS_P1;SDS_P2;PMS_P1;PMS_P2;Temp;Humidity;BMP_temperature;BMP_pressure;BME280_temperature;BME280_humidity;BME280_pressure;Samples;Min_cycle;Max_cycle;Signal;HPM_P1;HPM_P2
2022/11/26 00:00:19;;;;;;;31.13;15.40;;;;;;;;;;5055713;28;20029;-79
2022/11/26 00:02:45;;;;;;;32.88;16.13;;;;;;;;;;5055795;28;20021;-79
2022/11/26 00:05:12;;;;;;;31.48;15.30;;;;;;;;;;5021402;28;20037;-78
2022/11/26 00:07:38;;;;;;;27.77;14.48;;;;;;;;;;5021507;28;20032;-79
2022/11/26 00:10:04;;;;;;;26.10;13.57;;;;;;;;;;5020449;28;20020;-79
2022/11/26 00:12:33;;;;;;;27.85;13.07;;;;;;;;;;5055470;28;20048;-79
2022/11/26 00:15:19;;;;;;;35.53;15.55;;;;;;;;;;5021927;28;20443;-79
2022/11/26 00:17:44;;;;;;;45.35;17.23;;;;;;;;;;5038650;28;20059;-78
2022/11/26 00:20:10;;;;;;;36.38;15.90;;;;;;;;;;5020505;28;20063;-78
2022/11/26 00:22:39;;;;;;;39.88;15.77;;;;;;;;;;5037457;28;20087;-79
2022/11/26 00:25:05;;;;;;;37.97;15.18;;;;;;;;;;5055300;28;20028;-78
2022/11/26 00:27:30;;;;;;;31.13;13.60;;;;;;;;;;5036937;28;20033;-79
2022/11/26 00:29:56;;;;;;;23.92;12.63;;;;;;;;;;5055193;28;20375;-79
2022/11/26 00:32:24;;;;;;;26.88;13.05;;;;;;;;;;5055003;28;20066;-79
2022/11/26 00:34:50;;;;;;;23.83;12.65;;;;;;;;;;5038059;28;20115;-77
2022/11/26 00:37:36;;;;;;;27.23;13.35;;;;;;;;;;5055539;28;20063;-78
2022/11/26 00:40:04;;;;;;;27.98;12.18;;;;;;;;;;5038623;28;20032;-79
2022/11/26 00:42:29;;;;;;;24.02;12.90;;;;;;;;;;5037411;28;20033;-79
2022/11/26 00:44:55;;;;;;;26.30;13.27;;;;;;;;;;5054793;28;20359;-79
2022/11/26 00:47:20;;;;;;;23.90;12.93;;;;;;;;;;5054635;28;20028;-79
2022/11/26 00:49:45;;;;;;;22.23;12.75;;;;;;;;;;5054591;28;20174;-79
2022/11/26 00:52:23;;;;;;;25.55;11.55;;;;;;;;;;5053757;28;20091;-79
2022/11/26 00:54:49;;;;;;;24.98;12.68;;;;;;;;;;5055797;28;20033;-79
2022/11/26 00:57:14;;;;;;;22.63;10.27;;;;;;;;;;5037727;28;20476;-79
2022/11/26 00:59:40;;;;;;;22.00;11.10;;;;;;;;;;5054942;28;20032;-79
2022/11/26 01:02:05;;;;;;;19.23;10.25;;;;;;;;;;5036908;28;20379;-79
2022/11/26 01:04:31;;;;;;;20.73;10.02;;;;;;;;;;5054519;28;20029;-79
2022/11/26 01:06:56;;;;;;;17.60;9.73;;;;;;;;;;5037176;28;20033;-79
2022/11/26 01:09:22;;;;;;;18.92;9.85;;;;;;;;;;5036658;28;20469;-78
2022/11/26 01:11:47;;;;;;;21.67;10.05;;;;;;;;;;5054120;28;20031;-79
2022/11/26 01:14:17;;;;;;;18.10;9.40;;;;;;;;;;5036409;28;20043;-78
2022/11/26 01:16:43;;;;;;;17.80;9.40;;;;;;;;;;5054497;28;20055;-79
2022/11/26 01:19:10;;;;;;;17.30;9.38;;;;;;;;;;5020313;28;20418;-79
2022/11/26 01:21:35;;;;;;;21.92;9.70;;;;;;;;;;5036597;28;20032;-79
2022/11/26 01:24:01;;;;;;;15.90;8.80;;;;;;;;;;5054134;28;20024;-79
2022/11/26 01:26:27;;;;;;;16.50;8.77;;;;;;;;;;5053897;28;20372;-79
2022/11/26 01:28:54;;;;;;;17.60;8.95;;;;;;;;;;5054024;28;20036;-79
2022/11/26 01:31:21;;;;;;;16.08;8.27;;;;;;;;;;5020006;28;20096;-79
2022/11/26 01:33:47;;;;;;;15.70;9.43;;;;;;;;;;5036359;28;20171;-78
2022/11/26 01:36:22;;;;;;;17.83;9.02;;;;;;;;;;5036446;28;20107;-79
2022/11/26 01:38:47;;;;;;;16.00;8.77;;;;;;;;;;5054258;28;20029;-79
2022/11/26 01:41:37;;;;;;;17.33;9.00;;;;;;;;;;5035397;28;20058;-79
2022/11/26 01:44:02;;;;;;;17.73;9.07;;;;;;;;;;5053865;28;20499;-79
2022/11/26 01:46:28;;;;;;;15.20;8.85;;;;;;;;;;5019782;28;20045;-79
2022/11/26 01:49:12;;;;;;;20.38;10.15;;;;;;;;;;5053801;28;20435;-79
2022/11/26 01:51:38;;;;;;;17.63;9.48;;;;;;;;;;5036085;28;20036;-79
2022/11/26 01:54:03;;;;;;;17.50;8.52;;;;;;;;;;5036260;28;20033;-79
2022/11/26 01:56:39;;;;;;;16.58;9.25;;;;;;;;;;5036013;28;20029;-79
2022/11/26 01:59:11;;;;;;;24.75;10.27;;;;;;;;;;5019929;28;20029;-79
2022/11/26 02:01:37;;;;;;;17.15;9.40;;;;;;;;;;5036443;28;20029;-80
2022/11/26 02:04:11;;;;;;;17.95;9.20;;;;;;;;;;5053842;28;20406;-80
2022/11/26 02:06:36;;;;;;;19.63;9.73;;;;;;;;;;5053365;28;20086;-80
2022/11/26 02:09:04;;;;;;;20.08;10.00;;;;;;;;;;5053438;28;20025;-79
2022/11/26 02:11:30;;;;;;;17.65;9.60;;;;;;;;;;5035945;28;20032;-79
2022/11/26 02:14:01;;;;;;;17.13;9.38;;;;;;;;;;5053666;28;20095;-80
2022/11/26 02:16:35;;;;;;;19.33;9.25;;;;;;;;;;5020172;28;20040;-80
2022/11/26 02:19:24;;;;;;;19.33;10.02;;;;;;;;;;5036117;28;20087;-78
2022/11/26 02:21:53;;;;;;;18.90;9.43;;;;;;;;;;5039523;28;20053;-80
2022/11/26 02:24:43;;;;;;;19.27;10.15;;;;;;;;;;5035713;28;20029;-79
2022/11/26 02:27:45;;;;;;;16.70;9.18;;;;;;;;;;5035803;28;20033;-79
2022/11/26 02:30:12;;;;;;;17.10;9.73;;;;;;;;;;5053527;28;20032;-78
2022/11/26 02:33:02;;;;;;;18.90;9.77;;;;;;;;;;5035966;28;20085;-81
2022/11/26 02:35:39;;;;;;;19.92;9.23;;;;;;;;;;5036267;28;20033;-79
2022/11/26 02:38:07;;;;;;;16.75;9.30;;;;;;;;;;5053213;28;20025;-79
2022/11/26 02:40:33;;;;;;;20.80;9.65;;;;;;;;;;5035798;28;20451;-79
2022/11/26 02:42:58;;;;;;;18.05;9.80;;;;;;;;;;5036091;28;20025;-78
2022/11/26 02:45:26;;;;;;;18.77;9.85;;;;;;;;;;5049055;28;20082;-78
2022/11/26 02:47:52;;;;;;;17.80;9.55;;;;;;;;;;5042729;28;20044;-78
2022/11/26 02:50:24;;;;;;;18.98;9.77;;;;;;;;;;5035678;28;20417;-79
2022/11/26 02:52:49;;;;;;;20.35;10.02;;;;;;;;;;5019356;28;20029;-79
2022/11/26 02:55:15;;;;;;;22.48;9.90;;;;;;;;;;5019034;28;20481;-79
2022/11/26 02:57:44;;;;;;;19.35;10.50;;;;;;;;;;5019031;28;20075;-79
2022/11/26 03:00:11;;;;;;;17.98;9.75;;;;;;;;;;5019284;28;20047;-78
2022/11/26 03:02:42;;;;;;;20.25;9.27;;;;;;;;;;5019577;28;20464;-79
2022/11/26 03:05:08;;;;;;;16.92;9.70;;;;;;;;;;5019506;28;20128;-79
2022/11/26 03:07:33;;;;;;;19.40;10.07;;;;;;;;;;5035120;28;20032;-78
2022/11/26 03:09:59;;;;;;;20.85;10.15;;;;;;;;;;5019077;28;20451;-78
2022/11/26 03:12:25;;;;;;;18.10;10.07;;;;;;;;;;5035463;28;20123;-79
2022/11/26 03:14:51;;;;;;;18.88;9.82;;;;;;;;;;5035212;28;20127;-78
2022/11/26 03:17:16;;;;;;;20.63;10.45;;;;;;;;;;5052997;28;20086;-79
2022/11/26 03:19:42;;;;;;;20.83;10.95;;;;;;;;;;5038168;28;20431;-78
2022/11/26 03:22:07;;;;;;;22.80;11.52;;;;;;;;;;5038847;28;20036;-78
2022/11/26 03:24:33;;;;;;;16.65;10.00;;;;;;;;;;5057723;28;20021;-79
2022/11/26 03:26:58;;;;;;;21.10;10.63;;;;;;;;;;5022623;28;20033;-78
2022/11/26 03:29:24;;;;;;;19.65;11.02;;;;;;;;;;5039011;28;20032;-79
2022/11/26 03:31:49;;;;;;;23.85;11.80;;;;;;;;;;5022218;28;20104;-79
2022/11/26 03:34:15;;;;;;;20.52;11.77;;;;;;;;;;5038561;28;20029;-79
2022/11/26 03:36:40;;;;;;;27.02;11.35;;;;;;;;;;5056015;28;20056;-78
2022/11/26 03:39:06;;;;;;;20.52;12.05;;;;;;;;;;5022042;28;20082;-78
2022/11/26 03:41:31;;;;;;;21.73;11.55;;;;;;;;;;5038532;28;20029;-79
2022/11/26 03:43:57;;;;;;;24.88;11.40;;;;;;;;;;5038346;28;20029;-79
2022/11/26 03:46:22;;;;;;;19.35;11.15;;;;;;;;;;5038415;28;20045;-79
2022/11/26 03:48:47;;;;;;;24.38;11.00;;;;;;;;;;5038686;28;20033;-78
2022/11/26 03:51:13;;;;;;;38.33;18.98;;;;;;;;;;5055694;28;20056;-78
2022/11/26 03:53:38;;;;;;;36.15;19.13;;;;;;;;;;5021827;28;20047;-78
2022/11/26 03:56:04;;;;;;;37.42;19.30;;;;;;;;;;5038092;28;20029;-78
2022/11/26 03:58:29;;;;;;;37.17;20.05;;;;;;;;;;5056252;28;20075;-79
2022/11/26 04:00:55;;;;;;;31.17;18.20;;;;;;;;;;5038247;28;20025;-79
2022/11/26 04:03:21;;;;;;;35.63;19.10;;;;;;;;;;5038131;28;20021;-79
2022/11/26 04:05:46;;;;;;;31.15;17.75;;;;;;;;;;5040839;28;20025;-78
2022/11/26 04:08:12;;;;;;;32.60;16.52;;;;;;;;;;5023337;28;20025;-79
2022/11/26 04:10:37;;;;;;;32.25;16.52;;;;;;;;;;5038110;28;20120;-79
2022/11/26 04:13:03;;;;;;;30.42;16.40;;;;;;;;;;5037742;28;20103;-79
2022/11/26 04:15:28;;;;;;;26.45;13.80;;;;;;;;;;5055477;28;20052;-79
2022/11/26 04:17:54;;;;;;;29.65;15.07;;;;;;;;;;5055478;28;20036;-78
2022/11/26 04:20:19;;;;;;;37.30;18.30;;;;;;;;;;5055126;28;20017;-79
2022/11/26 04:22:44;;;;;;;40.33;19.35;;;;;;;;;;5055466;28;20035;-78
2022/11/26 04:25:10;;;;;;;34.97;18.65;;;;;;;;;;5021418;28;20119;-79
2022/11/26 04:27:35;;;;;;;34.22;17.73;;;;;;;;;;5022022;28;20454;-79
2022/11/26 04:30:01;;;;;;;38.00;17.75;;;;;;;;;;5020663;28;20025;-76
2022/11/26 04:32:26;;;;;;;32.13;16.83;;;;;;;;;;5020865;28;20071;-77
2022/11/26 04:34:52;;;;;;;35.28;17.52;;;;;;;;;;5020650;28;20047;-77
2022/11/26 04:37:17;;;;;;;35.03;16.10;;;;;;;;;;5020822;28;20040;-77
2022/11/26 04:39:42;;;;;;;34.78;15.90;;;;;;;;;;5020799;28;20039;-78
2022/11/26 04:42:08;;;;;;;34.22;16.98;;;;;;;;;;5020861;28;20128;-77
2022/11/26 04:44:33;;;;;;;30.10;15.07;;;;;;;;;;5054970;28;20025;-78
2022/11/26 04:46:59;;;;;;;28.35;15.30;;;;;;;;;;5037294;28;20025;-77
2022/11/26 04:49:25;;;;;;;30.38;15.45;;;;;;;;;;5020544;28;20037;-78
2022/11/26 04:51:50;;;;;;;29.95;14.93;;;;;;;;;;5054851;28;20025;-79
2022/11/26 04:54:16;;;;;;;27.63;14.73;;;;;;;;;;5054724;28;20033;-78
2022/11/26 04:56:41;;;;;;;26.85;14.43;;;;;;;;;;5037142;28;20175;-79
2022/11/26 04:59:07;;;;;;;27.50;14.93;;;;;;;;;;5036901;28;20059;-78
2022/11/26 05:01:32;;;;;;;25.77;14.55;;;;;;;;;;5036899;28;20031;-78
2022/11/26 05:03:57;;;;;;;24.70;13.52;;;;;;;;;;5020184;28;20028;-77
2022/11/26 05:06:23;;;;;;;27.65;14.13;;;;;;;;;;5020739;28;20353;-78
2022/11/26 05:08:48;;;;;;;28.95;14.52;;;;;;;;;;5054902;28;20017;-79
2022/11/26 05:11:14;;;;;;;26.65;13.48;;;;;;;;;;5036825;28;20347;-79
2022/11/26 05:13:39;;;;;;;24.67;13.07;;;;;;;;;;5036998;28;20082;-78
2022/11/26 05:16:05;;;;;;;26.38;13.70;;;;;;;;;;5036709;28;20021;-80
2022/11/26 05:18:30;;;;;;;24.08;13.25;;;;;;;;;;5036366;28;20108;-78
2022/11/26 05:20:56;;;;;;;24.35;12.65;;;;;;;;;;5054393;28;20032;-78
2022/11/26 05:23:21;;;;;;;25.30;13.25;;;;;;;;;;5036648;28;20021;-78
2022/11/26 05:25:46;;;;;;;27.77;13.70;;;;;;;;;;5034447;28;20037;-79
2022/11/26 05:28:12;;;;;;;34.08;17.33;;;;;;;;;;5003931;28;20021;-79
2022/11/26 05:30:38;;;;;;;34.38;16.85;;;;;;;;;;5021718;28;20451;-78
2022/11/26 05:33:03;;;;;;;30.85;15.80;;;;;;;;;;5054037;28;20382;-78
2022/11/26 05:35:29;;;;;;;33.42;17.35;;;;;;;;;;5036583;28;20028;-78
2022/11/26 05:37:54;;;;;;;30.65;16.73;;;;;;;;;;5054213;28;20070;-78
2022/11/26 05:40:19;;;;;;;33.80;16.95;;;;;;;;;;5053883;28;20025;-79
2022/11/26 05:42:45;;;;;;;30.92;15.73;;;;;;;;;;5055136;28;20025;-79
2022/11/26 05:45:10;;;;;;;32.20;16.80;;;;;;;;;;5019978;28;20378;-79
2022/11/26 05:47:36;;;;;;;31.48;16.17;;;;;;;;;;5036212;28;20112;-78
2022/11/26 05:50:02;;;;;;;29.85;15.60;;;;;;;;;;5036498;28;20104;-78
2022/11/26 05:52:27;;;;;;;35.33;16.08;;;;;;;;;;5021065;28;20072;-78
2022/11/26 05:54:52;;;;;;;28.63;15.50;;;;;;;;;;5064153;28;20049;-79
2022/11/26 05:57:18;;;;;;;29.90;16.65;;;;;;;;;;5039975;28;20068;-79
2022/11/26 05:59:46;;;;;;;32.28;15.10;;;;;;;;;;5058123;28;20029;-78
2022/11/26 06:02:12;;;;;;;29.35;15.05;;;;;;;;;;5020067;28;20048;-78
2022/11/26 06:04:37;;;;;;;34.78;16.08;;;;;;;;;;5053671;28;20029;-79
2022/11/26 06:07:03;;;;;;;109.72;44.05;;;;;;;;;;5035998;28;20052;-79
2022/11/26 06:09:28;;;;;;;62.17;27.85;;;;;;;;;;5053708;28;20032;-79
2022/11/26 06:11:54;;;;;;;56.55;31.00;;;;;;;;;;5054766;28;20053;-79
2022/11/26 06:14:19;;;;;;;87.05;48.00;;;;;;;;;;5036177;28;20033;-79
2022/11/26 06:16:44;;;;;;;113.88;58.50;;;;;;;;;;5053562;28;20021;-79
2022/11/26 06:19:10;;;;;;;173.73;90.25;;;;;;;;;;5053612;28;20056;-78
2022/11/26 06:21:36;;;;;;;127.30;67.95;;;;;;;;;;5036377;28;20080;-79
2022/11/26 06:24:01;;;;;;;164.55;90.03;;;;;;;;;;5035877;28;20420;-80
2022/11/26 06:26:27;;;;;;;62.22;35.33;;;;;;;;;;5035824;28;20131;-79
2022/11/26 06:28:52;;;;;;;45.65;24.85;;;;;;;;;;5053632;28;20048;-79
2022/11/26 06:31:18;;;;;;;39.63;20.23;;;;;;;;;;5019344;28;20107;-79
2022/11/26 06:33:43;;;;;;;38.30;19.60;;;;;;;;;;5020292;28;20041;-79
2022/11/26 06:36:10;;;;;;;28.08;14.68;;;;;;;;;;5055032;28;20419;-78
2022/11/26 06:38:35;;;;;;;29.63;15.63;;;;;;;;;;5035883;28;20032;-78
2022/11/26 06:41:02;;;;;;;32.30;15.77;;;;;;;;;;5019315;28;20033;-78
2022/11/26 06:43:28;;;;;;;28.52;14.98;;;;;;;;;;5003133;28;20090;-78
2022/11/26 06:45:54;;;;;;;26.75;15.10;;;;;;;;;;5052819;28;20068;-79
2022/11/26 06:48:23;;;;;;;25.00;13.93;;;;;;;;;;5035695;28;20439;-79
2022/11/26 06:50:49;;;;;;;26.38;14.63;;;;;;;;;;5019175;28;20029;-79
2022/11/26 06:53:14;;;;;;;28.98;13.30;;;;;;;;;;5055410;28;20378;-80
2022/11/26 06:55:40;;;;;;;24.52;13.10;;;;;;;;;;5039957;28;20088;-78
2022/11/26 06:58:05;;;;;;;30.63;14.60;;;;;;;;;;5039127;28;20033;-77
2022/11/26 07:00:31;;;;;;;29.10;14.85;;;;;;;;;;5056822;28;20035;-79
2022/11/26 07:02:56;;;;;;;25.77;13.70;;;;;;;;;;5039363;28;20044;-78
2022/11/26 07:05:22;;;;;;;30.80;15.05;;;;;;;;;;5056483;28;20454;-79
2022/11/26 07:07:47;;;;;;;34.80;14.85;;;;;;;;;;5022820;28;20049;-79
2022/11/26 07:10:12;;;;;;;26.73;14.10;;;;;;;;;;5056725;28;20025;-80
2022/11/26 07:12:38;;;;;;;26.05;13.93;;;;;;;;;;5039180;28;20091;-79
2022/11/26 07:15:04;;;;;;;24.70;12.93;;;;;;;;;;5056688;28;20029;-79
2022/11/26 07:17:29;;;;;;;25.98;13.25;;;;;;;;;;5060835;28;20119;-79
2022/11/26 07:19:55;;;;;;;32.78;15.88;;;;;;;;;;5039489;28;20063;-78
2022/11/26 07:22:20;;;;;;;27.27;14.30;;;;;;;;;;5056467;28;20068;-79
2022/11/26 07:24:46;;;;;;;28.88;14.77;;;;;;;;;;5038704;28;20021;-79
2022/11/26 07:27:11;;;;;;;30.45;14.65;;;;;;;;;;5038650;28;20088;-80
2022/11/26 07:29:37;;;;;;;28.77;13.93;;;;;;;;;;5021936;28;20178;-79
2022/11/26 07:32:02;;;;;;;27.40;14.20;;;;;;;;;;5056372;28;20138;-79
2022/11/26 07:34:28;;;;;;;29.35;14.75;;;;;;;;;;5038518;28;20056;-79
2022/11/26 07:36:53;;;;;;;30.90;15.15;;;;;;;;;;5056560;28;20025;-81
2022/11/26 07:39:18;;;;;;;29.23;14.50;;;;;;;;;;5038594;28;20059;-79
2022/11/26 07:41:44;;;;;;;58.00;26.08;;;;;;;;;;5056250;28;20024;-80
2022/11/26 07:44:13;;;;;;;43.42;18.75;;;;;;;;;;5005386;28;20031;-80
2022/11/26 07:46:38;;;;;;;40.08;18.50;;;;;;;;;;5055956;28;20049;-79
2022/11/26 07:49:04;;;;;;;38.08;17.52;;;;;;;;;;5038297;28;21068;-79
2022/11/26 07:51:30;;;;;;;35.38;16.58;;;;;;;;;;5038158;28;20025;-80
2022/11/26 07:53:57;;;;;;;31.92;14.00;;;;;;;;;;5005489;28;20136;-77
2022/11/26 07:56:23;;;;;;;95.07;42.38;;;;;;;;;;5038461;28;20091;-77
2022/11/26 07:58:48;;;;;;;26.63;14.13;;;;;;;;;;5038186;28;20458;-80
2022/11/26 08:01:15;;;;;;;27.98;12.73;;;;;;;;;;5038012;28;20107;-78
2022/11/26 08:03:43;;;;;;;25.33;12.48;;;;;;;;;;5021515;28;20328;-80
2022/11/26 08:06:09;;;;;;;20.10;11.63;;;;;;;;;;5005111;28;20048;-79
2022/11/26 08:08:35;;;;;;;21.23;11.48;;;;;;;;;;5021387;28;20025;-78
2022/11/26 08:11:02;;;;;;;25.90;13.07;;;;;;;;;;5037730;28;20028;-79
2022/11/26 08:13:27;;;;;;;23.33;13.32;;;;;;;;;;5021227;28;20131;-80
2022/11/26 08:15:52;;;;;;;22.17;11.82;;;;;;;;;;5021351;28;20061;-79
2022/11/26 08:18:18;;;;;;;21.50;10.52;;;;;;;;;;5021481;28;20032;-80
2022/11/26 08:20:43;;;;;;;21.83;10.60;;;;;;;;;;5006543;28;20032;-80
2022/11/26 08:23:09;;;;;;;18.15;10.68;;;;;;;;;;5055376;28;20068;-80
2022/11/26 08:25:34;;;;;;;20.73;11.35;;;;;;;;;;5037360;28;20036;-80
2022/11/26 08:28:00;;;;;;;24.10;13.38;;;;;;;;;;5040260;28;20033;-78
2022/11/26 08:30:26;;;;;;;40.80;27.88;;;;;;;;;;5019518;28;20611;-79
2022/11/26 08:32:51;;;;;;;14.10;8.90;;;;;;;;;;5019564;28;20390;-78
2022/11/26 08:35:17;;;;;;;14.73;8.88;;;;;;;;;;5019800;28;20079;-79
2022/11/26 08:37:42;;;;;;;13.27;7.93;;;;;;;;;;5019311;28;20124;-79
2022/11/26 08:40:08;;;;;;;19.10;9.18;;;;;;;;;;5019772;28;20044;-79
2022/11/26 08:42:34;;;;;;;15.85;8.38;;;;;;;;;;5003863;28;20032;-79
2022/11/26 08:44:59;;;;;;;11.02;6.30;;;;;;;;;;5035475;28;20036;-79
2022/11/26 08:47:25;;;;;;;9.52;6.10;;;;;;;;;;5053408;28;20112;-79
2022/11/26 08:49:50;;;;;;;13.00;7.28;;;;;;;;;;5054281;28;20116;-79
2022/11/26 08:52:15;;;;;;;15.73;9.35;;;;;;;;;;5004801;28;20128;-79
2022/11/26 08:54:41;;;;;;;15.38;9.20;;;;;;;;;;5020050;28;20132;-79
2022/11/26 08:57:06;;;;;;;15.10;8.93;;;;;;;;;;5055392;28;20021;-79
2022/11/26 08:59:32;;;;;;;14.90;8.98;;;;;;;;;;5038497;28;20083;-79
2022/11/26 09:01:57;;;;;;;13.52;8.23;;;;;;;;;;5054639;28;20021;-79
2022/11/26 09:04:23;;;;;;;16.00;7.38;;;;;;;;;;5045973;28;20028;-79
2022/11/26 09:06:48;;;;;;;13.35;8.18;;;;;;;;;;5053969;28;20025;-79
2022/11/26 09:09:13;;;;;;;19.00;8.30;;;;;;;;;;5036657;28;20021;-79
2022/11/26 09:11:45;;;;;;;15.73;9.07;;;;;;;;;;5035896;28;20411;-79
2022/11/26 09:14:11;;;;;;;19.10;9.77;;;;;;;;;;5054376;28;20127;-79
2022/11/26 09:16:36;;;;;;;17.60;9.32;;;;;;;;;;5053283;28;20115;-79
2022/11/26 09:19:02;;;;;;;13.35;7.45;;;;;;;;;;5019959;28;20462;-79
2022/11/26 09:21:28;;;;;;;10.80;7.00;;;;;;;;;;5035128;28;20029;-79
2022/11/26 09:23:53;;;;;;;13.32;7.28;;;;;;;;;;5036008;28;20040;-79
2022/11/26 09:26:20;;;;;;;15.65;7.90;;;;;;;;;;5017613;28;20513;-81
2022/11/26 09:28:47;;;;;;;15.38;8.25;;;;;;;;;;5051847;28;20033;-79
2022/11/26 09:31:13;;;;;;;13.75;7.25;;;;;;;;;;5034191;28;20112;-79
2022/11/26 09:33:38;;;;;;;14.38;8.63;;;;;;;;;;5052365;28;20119;-79
2022/11/26 09:36:05;;;;;;;13.27;8.15;;;;;;;;;;5018248;28;20548;-80
2022/11/26 09:38:30;;;;;;;11.77;6.82;;;;;;;;;;5034807;28;20443;-79
2022/11/26 09:41:30;;;;;;;16.55;7.55;;;;;;;;;;5019618;28;20025;-79
2022/11/26 09:44:17;;;;;;;17.48;8.75;;;;;;;;;;5021620;28;20025;-79
2022/11/26 09:46:59;;;;;;;28.27;15.20;;;;;;;;;;5053893;28;20053;-79
2022/11/26 09:49:26;;;;;;;10.88;6.57;;;;;;;;;;5037867;28;20029;-78
2022/11/26 09:51:52;;;;;;;13.07;7.72;;;;;;;;;;5019718;28;20072;-80
2022/11/26 09:54:20;;;;;;;15.23;7.60;;;;;;;;;;5019304;28;20068;-79
2022/11/26 09:56:47;;;;;;;13.65;7.05;;;;;;;;;;5019761;28;20091;-79
2022/11/26 09:59:14;;;;;;;11.57;6.50;;;;;;;;;;5003146;28;20071;-79
2022/11/26 10:01:40;;;;;;;9.57;6.18;;;;;;;;;;5019144;28;20028;-79
2022/11/26 10:04:06;;;;;;;12.70;7.03;;;;;;;;;;5053448;28;20017;-79
2022/11/26 10:06:50;;;;;;;11.50;6.10;;;;;;;;;;5019311;28;20026;-79
2022/11/26 10:09:31;;;;;;;11.88;6.43;;;;;;;;;;5052550;28;20033;-79
2022/11/26 10:12:15;;;;;;;10.32;6.07;;;;;;;;;;5053718;28;20025;-80
2022/11/26 10:14:46;;;;;;;10.73;6.65;;;;;;;;;;5053320;28;20033;-80
2022/11/26 10:17:33;;;;;;;13.60;6.28;;;;;;;;;;5053534;28;20032;-79
2022/11/26 10:20:13;;;;;;;17.10;6.13;;;;;;;;;;5053587;28;20037;-79
2022/11/26 10:22:49;;;;;;;10.65;6.57;;;;;;;;;;5053165;28;20520;-79
2022/11/26 10:25:17;;;;;;;10.75;6.10;;;;;;;;;;5036964;28;20032;-79
2022/11/26 10:27:42;;;;;;;9.63;5.65;;;;;;;;;;5057507;28;20028;-79
2022/11/26 10:30:19;;;;;;;11.02;5.20;;;;;;;;;;5059463;28;20216;-80
2022/11/26 10:32:45;;;;;;;10.35;5.93;;;;;;;;;;5060392;28;20127;-79
2022/11/26 10:35:28;;;;;;;10.40;5.93;;;;;;;;;;5042449;28;20119;-78
2022/11/26 10:37:54;;;;;;;16.50;6.63;;;;;;;;;;5077303;28;20115;-80
2022/11/26 10:40:25;;;;;;;116.57;52.92;;;;;;;;;;5059313;28;20089;-80
2022/11/26 10:43:13;;;;;;;9.85;6.18;;;;;;;;;;5043027;28;20454;-79
2022/11/26 10:45:42;;;;;;;16.13;9.38;;;;;;;;;;5043244;28;20123;-79
2022/11/26 10:48:29;;;;;;;12.10;6.90;;;;;;;;;;5061173;28;20403;-79
2022/11/26 10:50:54;;;;;;;18.90;10.68;;;;;;;;;;5076707;28;20032;-80
2022/11/26 10:53:23;;;;;;;8.15;5.45;;;;;;;;;;5057284;28;20045;-80
2022/11/26 10:55:48;;;;;;;7.70;4.70;;;;;;;;;;5057875;28;20055;-79
2022/11/26 10:58:24;;;;;;;8.50;5.28;;;;;;;;;;5041199;28;20055;-79
2022/11/26 11:00:49;;;;;;;10.10;4.80;;;;;;;;;;5058269;28;20343;-79
2022/11/26 11:03:49;;;;;;;13.10;5.90;;;;;;;;;;5076279;28;20024;-80
2022/11/26 11:06:17;;;;;;;8.40;5.00;;;;;;;;;;5054770;28;20036;-79
2022/11/26 11:08:43;;;;;;;11.23;4.55;;;;;;;;;;5077244;28;20441;-79
2022/11/26 11:11:18;;;;;;;7.75;5.20;;;;;;;;;;5059005;28;20076;-79
2022/11/26 11:13:45;;;;;;;9.98;5.32;;;;;;;;;;5059067;28;20063;-79
2022/11/26 11:16:11;;;;;;;14.93;7.50;;;;;;;;;;5026308;28;20029;-79
2022/11/26 11:18:37;;;;;;;15.45;7.40;;;;;;;;;;5025588;28;20098;-79
2022/11/26 11:21:03;;;;;;;12.90;5.55;;;;;;;;;;5041839;28;20416;-79
2022/11/26 11:23:34;;;;;;;9.68;5.38;;;;;;;;;;5042031;28;20032;-79
2022/11/26 11:26:19;;;;;;;9.63;5.43;;;;;;;;;;5042359;28;20020;-80
2022/11/26 11:28:46;;;;;;;18.15;6.88;;;;;;;;;;5059017;28;20032;-80
2022/11/26 11:31:20;;;;;;;12.88;6.43;;;;;;;;;;5042011;28;20068;-79
2022/11/26 11:33:46;;;;;;;22.27;9.18;;;;;;;;;;5042785;28;20032;-79
2022/11/26 11:36:25;;;;;;;16.95;7.78;;;;;;;;;;5025250;28;20473;-79
2022/11/26 11:38:54;;;;;;;12.88;6.30;;;;;;;;;;5075393;28;20469;-79
2022/11/26 11:41:24;;;;;;;9.40;5.20;;;;;;;;;;5058424;28;20183;-79
2022/11/26 11:43:49;;;;;;;9.50;5.60;;;;;;;;;;5059084;28;20082;-80
2022/11/26 11:46:33;;;;;;;10.50;5.60;;;;;;;;;;5058246;28;20040;-80
2022/11/26 11:49:24;;;;;;;10.73;5.15;;;;;;;;;;5076755;28;20029;-80
2022/11/26 11:52:13;;;;;;;8.05;5.20;;;;;;;;;;5044408;28;20028;-80
2022/11/26 11:54:55;;;;;;;8.73;4.97;;;;;;;;;;5043587;28;20505;-80
2022/11/26 11:57:59;;;;;;;11.98;8.02;;;;;;;;;;5042886;28;20047;-79
2022/11/26 12:01:01;;;;;;;5.65;3.95;;;;;;;;;;4966694;28;20468;-79
2022/11/26 12:03:48;;;;;;;10.48;3.72;;;;;;;;;;5075541;28;20028;-78
2022/11/26 12:06:23;;;;;;;9.90;4.60;;;;;;;;;;5044400;28;20508;-79
2022/11/26 12:09:17;;;;;;;7.25;4.50;;;;;;;;;;5075784;28;20684;-78
2022/11/26 12:11:53;;;;;;;8.02;5.05;;;;;;;;;;5059925;28;20083;-79
2022/11/26 12:14:28;;;;;;;8.23;5.22;;;;;;;;;;5062508;28;20068;-79
2022/11/26 12:17:04;;;;;;;10.93;5.57;;;;;;;;;;5025763;28;20115;-79
2022/11/26 12:19:38;;;;;;;10.55;5.90;;;;;;;;;;5077032;28;20031;-79
2022/11/26 12:22:36;;;;;;;10.48;5.80;;;;;;;;;;5058243;28;20085;-79
2022/11/26 12:25:19;;;;;;;9.50;5.15;;;;;;;;;;5041139;28;20048;-80
2022/11/26 12:27:54;;;;;;;14.25;7.45;;;;;;;;;;5043090;28;20052;-78
2022/11/26 12:30:21;;;;;;;12.30;6.35;;;;;;;;;;5025694;28;20498;-80
2022/11/26 12:32:50;;;;;;;10.88;5.90;;;;;;;;;;5057185;28;20036;-80
2022/11/26 12:35:24;;;;;;;12.63;5.72;;;;;;;;;;5041321;28;20115;-79
2022/11/26 12:37:50;;;;;;;9.25;4.95;;;;;;;;;;5041542;28;20198;-79
2022/11/26 12:40:32;;;;;;;7.93;5.00;;;;;;;;;;5040771;28;20390;-79
2022/11/26 12:43:05;;;;;;;10.00;5.35;;;;;;;;;;5042348;28;20033;-79
2022/11/26 12:46:00;;;;;;;9.50;5.70;;;;;;;;;;5058031;28;20131;-80
2022/11/26 12:48:31;;;;;;;10.45;5.70;;;;;;;;;;5056855;28;20021;-81
2022/11/26 12:51:22;;;;;;;9.63;6.03;;;;;;;;;;5075311;28;20020;-79
2022/11/26 12:54:13;;;;;;;10.38;6.13;;;;;;;;;;5059732;28;20047;-78
2022/11/26 12:56:49;;;;;;;;;;;;;;;;;;5075261;28;20029;-79
2022/11/26 12:59:22;;;;;;;10.20;5.88;;;;;;;;;;5057633;28;19938;-79
2022/11/26 13:01:47;;;;;;;8.93;5.22;;;;;;;;;;5074500;28;20028;-78
2022/11/26 13:04:13;;;;;;;11.43;5.90;;;;;;;;;;5023595;28;20029;-78
2022/11/26 13:07:03;;;;;;;10.75;5.07;;;;;;;;;;5040042;28;20119;-79
2022/11/26 13:09:41;;;;;;;11.57;6.00;;;;;;;;;;5040420;28;20098;-78
2022/11/26 13:12:08;;;;;;;8.80;5.18;;;;;;;;;;5075897;28;20032;-79
2022/11/26 13:14:40;;;;;;;9.52;4.75;;;;;;;;;;5040213;28;20392;-79
2022/11/26 13:17:11;;;;;;;10.40;5.65;;;;;;;;;;5074206;28;20036;-79
2022/11/26 13:19:42;;;;;;;18.55;7.90;;;;;;;;;;5056552;28;20028;-78
2022/11/26 13:22:56;;;;;;;21.85;8.50;;;;;;;;;;5041224;28;20040;-79
2022/11/26 13:25:28;;;;;;;21.80;8.30;;;;;;;;;;4979722;28;20026;-78
2022/11/26 13:28:40;;;;;;;8.45;5.03;;;;;;;;;;5069298;28;20130;-78
2022/11/26 13:31:12;;;;;;;12.57;5.43;;;;;;;;;;4964830;28;20039;-79
2022/11/26 13:33:53;;;;;;;10.00;5.50;;;;;;;;;;5046359;28;20090;-78
2022/11/26 13:36:33;;;;;;;13.60;7.07;;;;;;;;;;5058128;28;20075;-78
2022/11/26 13:39:14;;;;;;;;;;;;;;;;;;5056855;28;20036;-79
2022/11/26 13:41:57;;;;;;;14.50;7.00;;;;;;;;;;5074373;28;20000;-78
2022/11/26 13:44:50;;;;;;;15.60;7.15;;;;;;;;;;5056387;28;20068;-78
2022/11/26 13:47:16;;;;;;;15.88;8.68;;;;;;;;;;5056770;28;20035;-78
2022/11/26 13:50:04;;;;;;;23.38;11.00;;;;;;;;;;5056117;28;20070;-79
2022/11/26 13:52:41;;;;;;;26.98;11.93;;;;;;;;;;5048464;28;20070;-78
2022/11/26 13:55:19;;;;;;;36.60;14.20;;;;;;;;;;5039724;28;20355;-78
2022/11/26 13:57:46;;;;;;;31.08;12.98;;;;;;;;;;5056928;28;20060;-77
2022/11/26 14:00:31;;;;;;;41.47;15.27;;;;;;;;;;5039405;28;20491;-78
2022/11/26 14:02:58;;;;;;;42.75;16.58;;;;;;;;;;5056742;28;20430;-79
2022/11/26 14:05:23;;;;;;;49.88;18.25;;;;;;;;;;5074249;28;20036;-78
2022/11/26 14:07:48;;;;;;;40.55;17.83;;;;;;;;;;5022676;28;20036;-79
2022/11/26 14:10:33;;;;;;;56.08;18.83;;;;;;;;;;5055832;28;20089;-81
2022/11/26 14:13:01;;;;;;;51.03;19.30;;;;;;;;;;5055872;28;20032;-79
2022/11/26 14:15:42;;;;;;;58.28;20.80;;;;;;;;;;5057024;28;20036;-80
2022/11/26 14:18:08;;;;;;;58.58;20.20;;;;;;;;;;5057084;28;20059;-79
2022/11/26 14:20:56;;;;;;;36.50;15.65;;;;;;;;;;5055699;28;20060;-80
2022/11/26 14:23:39;;;;;;;58.45;27.25;;;;;;;;;;5073648;28;20028;-79
2022/11/26 14:26:15;;;;;;;52.55;21.95;;;;;;;;;;5073563;28;20029;-79
2022/11/26 14:28:41;;;;;;;39.10;18.30;;;;;;;;;;5055403;28;20029;-79
2022/11/26 14:31:29;;;;;;;33.47;14.60;;;;;;;;;;5073546;28;20020;-79
2022/11/26 14:33:56;;;;;;;21.13;9.82;;;;;;;;;;5073779;28;20158;-78
2022/11/26 14:36:24;;;;;;;22.13;9.98;;;;;;;;;;5041613;28;20109;-78
2022/11/26 14:39:08;;;;;;;19.75;9.13;;;;;;;;;;5055989;28;20024;-79